createdAt,value
2019-01-17T00:00:44.005Z,79.39
2019-01-17T00:01:44.015Z,79.60
2019-01-17T00:02:44.004Z,79.91
2019-01-17T00:03:43.968Z,79.91
2019-01-17T00:04:43.972Z,80.18
2019-01-17T00:05:43.979Z,80.32
2019-01-17T00:06:43.936Z,80.11
2019-01-17T00:07:43.936Z,80.74
2019-01-17T00:08:43.930Z,80.11
2019-01-17T00:09:43.903Z,79.70
2019-01-17T00:10:43.891Z,80.32
2019-01-17T00:11:43.963Z,80.29
2019-01-17T00:12:43.897Z,81.05
2019-01-17T00:13:43.878Z,80.74
2019-01-17T00:14:43.891Z,80.63
2019-01-17T00:15:43.839Z,80.43
2019-01-17T00:16:43.847Z,80.94
2019-01-17T00:17:43.833Z,80.53
2019-01-17T00:18:43.802Z,81.25
2019-01-17T00:19:43.836Z,81.42
2019-01-17T00:20:43.772Z,80.70
2019-01-17T00:21:43.852Z,80.53
2019-01-17T00:22:43.827Z,80.84
2019-01-17T00:23:43.758Z,81.01
2019-01-17T00:24:43.754Z,80.60
2019-01-17T00:25:43.726Z,81.42
2019-01-17T00:26:43.721Z,80.90
2019-01-17T00:27:43.739Z,81.01
2019-01-17T00:28:43.719Z,81.63
2019-01-17T00:29:43.777Z,80.80
2019-01-17T00:30:43.701Z,80.80
2019-01-17T00:31:43.663Z,80.60
2019-01-17T00:32:43.654Z,81.11
2019-01-17T00:33:43.655Z,80.70
2019-01-17T00:34:43.627Z,81.01
2019-01-17T00:35:43.622Z,80.70
2019-01-17T00:36:43.610Z,81.52
2019-01-17T00:37:43.602Z,81.42
2019-01-17T00:38:43.598Z,80.60
2019-01-17T00:39:43.614Z,81.46
2019-01-17T00:40:43.566Z,81.77
2019-01-17T00:41:43.583Z,81.25
2019-01-17T00:42:43.541Z,81.11
2019-01-17T00:43:43.558Z,81.32
2019-01-17T00:44:43.528Z,81.56
2019-01-17T00:45:43.529Z,81.21
2019-01-17T00:46:43.521Z,81.42
2019-01-17T00:47:43.523Z,81.52
2019-01-17T00:48:43.507Z,81.11
2019-01-17T00:49:43.465Z,81.21
2019-01-17T00:50:43.462Z,81.52
2019-01-17T00:51:43.440Z,81.21
2019-01-17T00:52:43.439Z,81.63
2019-01-17T00:53:43.461Z,81.52
2019-01-17T00:54:43.463Z,81.52
2019-01-17T00:55:43.408Z,81.32
2019-01-17T00:56:43.402Z,81.42
2019-01-17T00:57:43.370Z,80.94
2019-01-17T00:58:43.371Z,81.84
2019-01-17T00:59:43.371Z,82.04
2019-01-17T01:00:43.355Z,81.84
2019-01-17T01:01:43.342Z,81.73
2019-01-17T01:02:43.415Z,81.73
2019-01-17T01:03:43.311Z,82.15
2019-01-17T01:04:43.329Z,81.84
2019-01-17T01:05:43.322Z,82.35
2019-01-17T01:06:43.296Z,82.45
2019-01-17T01:07:43.271Z,81.73
2019-01-17T01:08:43.286Z,81.94
2019-01-17T01:09:43.249Z,82.35
2019-01-17T01:10:43.234Z,82.29
2019-01-17T01:11:43.226Z,82.66
2019-01-17T01:12:43.240Z,82.35
2019-01-17T01:13:43.238Z,82.56
2019-01-17T01:14:43.218Z,83.70
2019-01-17T01:15:43.201Z,83.59
2019-01-17T01:16:43.174Z,83.59
2019-01-17T01:17:43.154Z,84.15
2019-01-17T01:18:43.152Z,83.49
2019-01-17T01:19:43.165Z,83.94
2019-01-17T01:20:43.150Z,84.05
2019-01-17T01:21:43.137Z,84.05
2019-01-17T01:22:43.103Z,84.45
2019-01-17T01:23:43.156Z,84.36
2019-01-17T01:24:43.081Z,85.08
2019-01-17T01:25:43.126Z,84.97
2019-01-17T01:26:43.064Z,84.97
2019-01-17T01:27:43.096Z,84.56
2019-01-17T01:28:43.110Z,85.18
2019-01-17T01:29:43.024Z,84.97
2019-01-17T01:30:43.081Z,86.11
2019-01-17T01:31:43.028Z,85.28
2019-01-17T01:32:43.016Z,86.32
2019-01-17T01:33:43.086Z,85.49
2019-01-17T01:34:42.973Z,85.91
2019-01-17T01:35:42.983Z,86.01
2019-01-17T01:36:43.032Z,86.32
2019-01-17T01:37:42.980Z,86.21
2019-01-17T01:38:42.937Z,86.11
2019-01-17T01:39:42.925Z,85.80
2019-01-17T01:40:42.912Z,86.11
2019-01-17T01:41:42.909Z,86.52
2019-01-17T01:42:42.896Z,86.01
2019-01-17T01:43:42.908Z,85.70
2019-01-17T01:44:42.960Z,86.01
2019-01-17T01:45:42.861Z,86.21
2019-01-17T01:46:42.906Z,86.01
2019-01-17T01:47:42.854Z,86.32
2019-01-17T01:48:42.841Z,86.83
2019-01-17T01:49:42.821Z,86.88
2019-01-17T01:50:42.816Z,86.52
2019-01-17T01:51:42.871Z,86.63
2019-01-17T01:52:42.795Z,86.32
2019-01-17T01:53:42.771Z,86.83
2019-01-17T01:54:42.759Z,87.25
2019-01-17T01:55:42.751Z,86.73
2019-01-17T01:56:42.770Z,86.52
2019-01-17T01:57:42.744Z,86.73
2019-01-17T01:58:42.825Z,86.83
2019-01-17T01:59:42.801Z,86.73
2019-01-17T02:00:42.920Z,86.73
2019-01-17T02:01:42.696Z,86.83
2019-01-17T02:02:42.723Z,86.94
2019-01-17T02:03:42.682Z,86.32
2019-01-17T02:04:42.657Z,86.21
2019-01-17T02:05:42.653Z,86.21
2019-01-17T02:06:42.653Z,86.32
2019-01-17T02:07:42.640Z,86.42
2019-01-17T02:08:42.771Z,86.32
2019-01-17T02:09:42.609Z,86.83
2019-01-17T02:10:42.609Z,86.42
2019-01-17T02:11:42.579Z,86.73
2019-01-17T02:12:42.567Z,86.73
2019-01-17T02:13:42.553Z,87.35
2019-01-17T02:14:42.541Z,87.25
2019-01-17T02:15:42.548Z,87.25
2019-01-17T02:16:42.532Z,86.94
2019-01-17T02:17:42.519Z,87.35
2019-01-17T02:18:42.514Z,88.18
2019-01-17T02:19:42.524Z,88.39
2019-01-17T02:20:42.525Z,88.39
2019-01-17T02:21:42.487Z,88.07
2019-01-17T02:22:42.459Z,87.97
2019-01-17T02:23:42.442Z,88.39
2019-01-17T02:24:42.464Z,87.87
2019-01-17T02:25:42.456Z,88.18
2019-01-17T02:26:42.491Z,88.18
2019-01-17T02:27:42.462Z,88.80
2019-01-17T02:28:42.401Z,88.90
2019-01-17T02:29:42.383Z,89.01
2019-01-17T02:30:42.367Z,88.59
2019-01-17T02:31:42.371Z,88.49
2019-01-17T02:32:42.365Z,89.11
2019-01-17T02:33:42.420Z,89.01
2019-01-17T02:34:42.338Z,88.80
2019-01-17T02:35:42.353Z,88.59
2019-01-17T02:36:42.315Z,88.80
2019-01-17T02:37:42.311Z,89.15
2019-01-17T02:38:42.285Z,89.25
2019-01-17T02:39:42.273Z,88.59
2019-01-17T02:40:42.290Z,89.62
2019-01-17T02:41:42.256Z,90.19
2019-01-17T02:42:42.292Z,90.19
2019-01-17T02:43:42.264Z,89.56
2019-01-17T02:44:42.216Z,89.42
2019-01-17T02:45:42.209Z,88.84
2019-01-17T02:46:42.198Z,88.84
2019-01-17T02:47:42.207Z,89.22
2019-01-17T02:48:42.172Z,89.36
2019-01-17T02:49:42.228Z,89.46
2019-01-17T02:50:42.153Z,89.15
2019-01-17T02:51:42.147Z,88.49
2019-01-17T02:52:42.154Z,88.70
2019-01-17T02:53:42.125Z,88.90
2019-01-17T02:54:42.115Z,88.59
2019-01-17T02:55:42.140Z,89.01
2019-01-17T02:56:42.102Z,88.70
2019-01-17T02:57:42.145Z,88.49
2019-01-17T02:58:42.077Z,87.97
2019-01-17T02:59:42.055Z,88.28
2019-01-17T03:00:42.053Z,87.97
2019-01-17T03:01:42.050Z,87.87
2019-01-17T03:02:42.024Z,87.87
2019-01-17T03:03:42.047Z,88.18
2019-01-17T03:04:42.031Z,88.07
2019-01-17T03:05:42.087Z,88.59
2019-01-17T03:06:41.974Z,88.49
2019-01-17T03:07:41.976Z,88.07
2019-01-17T03:08:41.966Z,87.76
2019-01-17T03:09:41.978Z,88.70
2019-01-17T03:10:41.961Z,88.07
2019-01-17T03:11:41.960Z,88.28
2019-01-17T03:12:41.917Z,87.87
2019-01-17T03:13:41.941Z,88.28
2019-01-17T03:14:42.327Z,88.39
2019-01-17T03:15:42.033Z,88.18
2019-01-17T03:16:41.955Z,89.01
2019-01-17T03:17:41.926Z,88.70
2019-01-17T03:18:41.860Z,88.59
2019-01-17T03:19:41.845Z,89.32
2019-01-17T03:20:41.835Z,89.01
2019-01-17T03:21:41.881Z,88.70
2019-01-17T03:22:41.821Z,88.49
2019-01-17T03:23:41.801Z,88.80
2019-01-17T03:24:43.152Z,88.39
2019-01-17T03:25:41.793Z,88.18
2019-01-17T03:26:41.757Z,88.49
2019-01-17T03:27:41.777Z,88.80
2019-01-17T03:28:41.777Z,88.39
2019-01-17T03:29:41.743Z,87.97
2019-01-17T03:30:41.743Z,87.87
2019-01-17T03:31:41.722Z,87.97
2019-01-17T03:32:41.705Z,89.01
2019-01-17T03:33:41.712Z,89.01
2019-01-17T03:34:41.679Z,88.70
2019-01-17T03:35:41.681Z,89.01
2019-01-17T03:36:41.665Z,88.59
2019-01-17T03:37:41.649Z,88.39
2019-01-17T03:38:41.665Z,88.28
2019-01-17T03:39:41.610Z,88.49
2019-01-17T03:40:41.625Z,88.70
2019-01-17T03:41:41.736Z,88.49
2019-01-17T03:42:41.609Z,88.59
2019-01-17T03:43:41.590Z,88.59
2019-01-17T03:44:41.594Z,88.49
2019-01-17T03:45:41.555Z,89.11
2019-01-17T03:46:41.566Z,88.80
2019-01-17T03:47:41.533Z,87.97
2019-01-17T03:48:41.538Z,87.87
2019-01-17T03:49:41.524Z,88.18
2019-01-17T03:50:41.521Z,88.28
2019-01-17T03:51:41.529Z,88.18
2019-01-17T03:52:41.501Z,88.70
2019-01-17T03:53:41.479Z,88.39
2019-01-17T03:54:42.193Z,88.59
2019-01-17T03:55:41.464Z,88.90
2019-01-17T03:56:41.463Z,88.70
2019-01-17T03:57:41.421Z,88.39
2019-01-17T03:58:41.435Z,89.01
2019-01-17T03:59:41.412Z,88.70
2019-01-17T04:00:41.400Z,87.97
2019-01-17T04:01:41.394Z,88.18
2019-01-17T04:02:41.381Z,88.07
2019-01-17T04:03:41.353Z,88.12
2019-01-17T04:04:41.374Z,87.97
2019-01-17T04:05:41.366Z,87.87
2019-01-17T04:06:41.355Z,88.70
2019-01-17T04:07:41.447Z,88.28
2019-01-17T04:08:41.359Z,88.90
2019-01-17T04:09:41.298Z,89.01
2019-01-17T04:10:41.283Z,88.53
2019-01-17T04:11:41.283Z,88.49
2019-01-17T04:12:41.271Z,88.59
2019-01-17T04:13:41.272Z,89.62
2019-01-17T04:14:41.240Z,89.73
2019-01-17T04:15:41.232Z,90.29
2019-01-17T04:16:41.240Z,90.56
2019-01-17T04:17:41.243Z,90.04
2019-01-17T04:18:41.220Z,90.08
2019-01-17T04:19:41.189Z,90.50
2019-01-17T04:20:41.188Z,91.11
2019-01-17T04:21:41.173Z,91.01
2019-01-17T04:22:41.182Z,90.60
2019-01-17T04:23:41.199Z,90.70
2019-01-17T04:24:41.134Z,92.05
2019-01-17T04:25:41.130Z,91.42
2019-01-17T04:26:41.174Z,91.53
2019-01-17T04:27:41.129Z,90.53
2019-01-17T04:28:41.098Z,91.11
2019-01-17T04:29:41.096Z,90.95
2019-01-17T04:30:41.083Z,91.05
2019-01-17T04:31:41.059Z,90.95
2019-01-17T04:32:41.048Z,90.84
2019-01-17T04:33:41.036Z,90.80
2019-01-17T04:34:41.058Z,90.60
2019-01-17T04:35:41.029Z,91.01
2019-01-17T04:36:41.085Z,91.01
2019-01-17T04:37:40.989Z,91.16
2019-01-17T04:38:40.989Z,91.05
2019-01-17T04:39:40.968Z,91.01
2019-01-17T04:40:40.988Z,91.01
2019-01-17T04:41:40.976Z,91.11
2019-01-17T04:42:40.965Z,90.84
2019-01-17T04:43:40.921Z,90.91
2019-01-17T04:44:40.922Z,91.05
2019-01-17T04:45:40.909Z,90.95
2019-01-17T04:46:40.914Z,91.01
2019-01-17T04:47:40.906Z,91.36
2019-01-17T04:48:40.869Z,91.84
2019-01-17T04:49:40.905Z,92.09
2019-01-17T04:50:40.880Z,91.57
2019-01-17T04:51:40.853Z,91.16
2019-01-17T04:52:40.880Z,91.47
2019-01-17T04:53:40.837Z,91.88
2019-01-17T04:54:40.804Z,91.57
2019-01-17T04:55:40.790Z,91.16
2019-01-17T04:56:40.794Z,90.84
2019-01-17T04:57:40.770Z,90.84
2019-01-17T04:58:40.770Z,91.26
2019-01-17T04:59:40.803Z,90.74
2019-01-17T05:00:40.771Z,90.84
2019-01-17T05:01:40.786Z,91.16
2019-01-17T05:02:40.725Z,90.84
2019-01-17T05:03:40.822Z,91.16
2019-01-17T05:04:40.709Z,91.78
2019-01-17T05:05:40.737Z,91.67
2019-01-17T05:06:40.729Z,91.05
2019-01-17T05:07:40.691Z,90.74
2019-01-17T05:08:40.706Z,91.47
2019-01-17T05:09:40.710Z,91.30
2019-01-17T05:10:40.654Z,91.20
2019-01-17T05:11:40.646Z,90.84
2019-01-17T05:12:40.616Z,91.05
2019-01-17T05:13:40.633Z,91.36
2019-01-17T05:14:40.667Z,91.78
2019-01-17T05:15:40.596Z,91.36
2019-01-17T05:16:40.649Z,92.03
2019-01-17T05:17:40.576Z,91.88
2019-01-17T05:18:40.548Z,92.81
2019-01-17T05:19:40.571Z,92.40
2019-01-17T05:20:40.538Z,91.88
2019-01-17T05:21:40.542Z,91.47
2019-01-17T05:22:40.537Z,91.47
2019-01-17T05:23:40.507Z,92.13
2019-01-17T05:24:40.490Z,92.96
2019-01-17T05:25:40.516Z,92.81
2019-01-17T05:26:40.502Z,92.65
2019-01-17T05:27:40.463Z,92.65
2019-01-17T05:28:40.474Z,92.96
2019-01-17T05:29:40.491Z,92.96
2019-01-17T05:30:40.418Z,93.37
2019-01-17T05:31:40.416Z,93.48
2019-01-17T05:32:40.395Z,93.68
2019-01-17T05:33:40.406Z,93.16
2019-01-17T05:34:40.364Z,93.89
2019-01-17T05:35:40.448Z,93.68
2019-01-17T05:36:40.375Z,93.48
2019-01-17T05:37:40.355Z,93.79
2019-01-17T05:38:40.337Z,93.73
2019-01-17T05:39:40.316Z,93.89
2019-01-17T05:40:40.307Z,93.68
2019-01-17T05:41:40.324Z,93.27
2019-01-17T05:42:40.311Z,93.37
2019-01-17T05:43:40.306Z,93.37
2019-01-17T05:44:40.292Z,93.58
2019-01-17T05:45:40.274Z,93.37
2019-01-17T05:46:40.250Z,93.58
2019-01-17T05:47:40.226Z,93.58
2019-01-17T05:48:40.234Z,93.48
2019-01-17T05:49:40.270Z,93.37
2019-01-17T05:50:40.209Z,93.41
2019-01-17T05:51:40.197Z,93.62
2019-01-17T05:52:40.197Z,93.93
2019-01-17T05:53:40.180Z,94.20
2019-01-17T05:54:40.165Z,94.35
2019-01-17T05:55:40.264Z,94.31
2019-01-17T05:56:40.142Z,94.20
2019-01-17T05:57:40.123Z,94.35
2019-01-17T05:58:40.160Z,94.20
2019-01-17T05:59:40.102Z,93.93
2019-01-17T06:00:40.131Z,94.45
2019-01-17T06:01:40.105Z,94.35
2019-01-17T06:02:40.130Z,94.56
2019-01-17T06:03:40.077Z,94.56
2019-01-17T06:04:40.044Z,94.45
2019-01-17T06:05:40.044Z,94.66
2019-01-17T06:06:40.054Z,94.20
2019-01-17T06:07:40.071Z,94.45
2019-01-17T06:08:40.033Z,94.45
2019-01-17T06:09:40.086Z,94.24
2019-01-17T06:10:40.018Z,94.45
2019-01-17T06:11:39.971Z,94.76
2019-01-17T06:12:39.969Z,94.14
2019-01-17T06:13:39.991Z,94.04
2019-01-17T06:14:39.957Z,94.45
2019-01-17T06:15:39.933Z,94.35
2019-01-17T06:16:39.921Z,94.45
2019-01-17T06:17:39.976Z,94.49
2019-01-17T06:18:39.901Z,94.56
2019-01-17T06:19:39.906Z,94.35
2019-01-17T06:20:39.878Z,94.66
2019-01-17T06:21:39.863Z,94.29
2019-01-17T06:22:39.859Z,94.45
2019-01-17T06:23:39.852Z,94.14
2019-01-17T06:24:39.846Z,95.32
2019-01-17T06:25:39.877Z,94.81
2019-01-17T06:26:39.897Z,95.01
2019-01-17T06:27:39.857Z,94.39
2019-01-17T06:28:39.796Z,94.91
2019-01-17T06:29:39.811Z,94.91
2019-01-17T06:30:39.777Z,94.81
2019-01-17T06:31:39.762Z,93.77
2019-01-17T06:32:39.755Z,93.98
2019-01-17T06:33:39.754Z,93.66
2019-01-17T06:34:39.787Z,93.98
2019-01-17T06:35:39.731Z,94.39
2019-01-17T06:36:39.753Z,93.35
2019-01-17T06:37:39.710Z,93.56
2019-01-17T06:38:39.688Z,93.56
2019-01-17T06:39:39.679Z,93.15
2019-01-17T06:40:39.669Z,93.15
2019-01-17T06:41:39.651Z,93.10
2019-01-17T06:42:39.749Z,92.84
2019-01-17T06:43:39.784Z,92.84
2019-01-17T06:44:39.624Z,93.04
2019-01-17T06:45:39.643Z,92.59
2019-01-17T06:46:39.602Z,92.59
2019-01-17T06:47:39.596Z,92.18
2019-01-17T06:48:39.611Z,91.97
2019-01-17T06:49:39.574Z,92.28
2019-01-17T06:50:39.603Z,92.07
2019-01-17T06:51:39.551Z,92.90
2019-01-17T06:52:39.553Z,92.90
2019-01-17T06:53:39.555Z,92.59
2019-01-17T06:54:39.526Z,93.21
2019-01-17T06:55:39.518Z,93.10
2019-01-17T06:56:39.506Z,93.77
2019-01-17T06:57:39.494Z,93.21
2019-01-17T06:58:39.477Z,93.04
2019-01-17T06:59:39.521Z,93.10
2019-01-17T07:00:39.462Z,91.97
2019-01-17T07:01:39.445Z,91.80
2019-01-17T07:02:39.436Z,91.86
2019-01-17T07:03:39.411Z,91.76
2019-01-17T07:04:39.403Z,91.76
2019-01-17T07:05:39.431Z,91.35
2019-01-17T07:06:39.405Z,92.18
2019-01-17T07:07:39.466Z,91.55
2019-01-17T07:08:39.362Z,91.76
2019-01-17T07:09:39.367Z,91.76
2019-01-17T07:10:39.351Z,91.66
2019-01-17T07:11:39.343Z,90.93
2019-01-17T07:12:39.335Z,89.69
2019-01-17T07:13:39.333Z,90.62
2019-01-17T07:14:39.291Z,91.14
2019-01-17T07:15:39.293Z,90.52
2019-01-17T07:16:39.282Z,91.14
2019-01-17T07:17:39.265Z,91.35
2019-01-17T07:18:39.325Z,91.03
2019-01-17T07:19:39.236Z,90.93
2019-01-17T07:20:39.241Z,90.45
2019-01-17T07:21:39.222Z,90.14
2019-01-17T07:22:39.261Z,90.66
2019-01-17T07:23:39.231Z,90.25
2019-01-17T07:24:39.184Z,90.45
2019-01-17T07:25:41.187Z,90.56
2019-01-17T07:26:39.218Z,90.77
2019-01-17T07:27:39.161Z,91.28
2019-01-17T07:28:39.183Z,90.29
2019-01-17T07:29:39.201Z,90.25
2019-01-17T07:30:39.136Z,90.29
2019-01-17T07:31:39.185Z,90.08
2019-01-17T07:32:39.135Z,90.08
2019-01-17T07:33:39.106Z,90.70
2019-01-17T07:34:39.099Z,91.33
2019-01-17T07:35:39.079Z,91.43
2019-01-17T07:36:39.057Z,91.78
2019-01-17T07:37:39.069Z,91.58
2019-01-17T07:38:39.160Z,91.68
2019-01-17T07:39:39.066Z,91.62
2019-01-17T07:40:39.011Z,92.41
2019-01-17T07:41:39.009Z,92.35
2019-01-17T07:42:39.002Z,93.18
2019-01-17T07:43:38.992Z,93.33
2019-01-17T07:44:39.069Z,93.07
2019-01-17T07:45:38.977Z,93.38
2019-01-17T07:46:38.964Z,93.18
2019-01-17T07:47:38.966Z,93.38
2019-01-17T07:48:38.930Z,93.07
2019-01-17T07:49:38.944Z,93.07
2019-01-17T07:50:38.961Z,93.38
2019-01-17T07:51:38.927Z,93.53
2019-01-17T07:52:38.960Z,93.32
2019-01-17T07:53:38.929Z,93.95
2019-01-17T07:54:38.880Z,93.95
2019-01-17T07:55:38.881Z,94.67
2019-01-17T07:56:38.848Z,94.57
2019-01-17T07:57:38.864Z,94.05
2019-01-17T07:58:38.835Z,94.67
2019-01-17T07:59:38.805Z,94.88
2019-01-17T08:00:38.867Z,94.92
2019-01-17T08:01:38.787Z,94.61
2019-01-17T08:02:38.786Z,94.20
2019-01-17T08:03:38.770Z,94.71
2019-01-17T08:04:38.764Z,94.09
2019-01-17T08:05:38.757Z,94.82
2019-01-17T08:06:38.748Z,94.61
2019-01-17T08:07:38.743Z,94.61
2019-01-17T08:08:38.716Z,94.09
2019-01-17T08:09:38.711Z,94.20
2019-01-17T08:10:38.694Z,94.20
2019-01-17T08:11:38.700Z,94.09
2019-01-17T08:12:38.683Z,93.84
2019-01-17T08:13:38.657Z,93.95
2019-01-17T08:14:38.734Z,93.57
2019-01-17T08:15:38.644Z,93.63
2019-01-17T08:16:38.658Z,93.84
2019-01-17T08:17:38.643Z,93.53
2019-01-17T08:18:38.620Z,93.07
2019-01-17T08:19:38.587Z,92.86
2019-01-17T08:20:38.635Z,92.86
2019-01-17T08:21:38.577Z,92.82
2019-01-17T08:22:38.553Z,92.82
2019-01-17T08:23:38.594Z,93.02
2019-01-17T08:24:38.553Z,93.02
2019-01-17T08:25:38.554Z,92.82
2019-01-17T08:26:38.548Z,92.61
2019-01-17T08:27:38.529Z,92.61
2019-01-17T08:28:38.532Z,93.13
2019-01-17T08:29:38.492Z,92.16
2019-01-17T08:30:38.511Z,91.74
2019-01-17T08:31:38.470Z,91.74
2019-01-17T08:32:38.460Z,92.16
2019-01-17T08:33:38.468Z,91.70
2019-01-17T08:34:38.499Z,91.24
2019-01-17T08:35:38.428Z,89.65
2019-01-17T08:36:38.412Z,90.06
2019-01-17T08:37:38.407Z,90.16
2019-01-17T08:38:38.390Z,89.58
2019-01-17T08:39:38.384Z,90.10
2019-01-17T08:40:38.409Z,90.37
2019-01-17T08:41:38.450Z,89.69
2019-01-17T08:42:38.357Z,90.10
2019-01-17T08:43:38.334Z,90.20
2019-01-17T08:44:38.324Z,90.20
2019-01-17T08:45:38.313Z,89.44
2019-01-17T08:46:38.321Z,90.52
2019-01-17T08:47:38.337Z,89.23
2019-01-17T08:48:38.314Z,88.40
2019-01-17T08:49:38.267Z,88.30
2019-01-17T08:50:38.279Z,88.57
2019-01-17T08:51:38.246Z,87.47
2019-01-17T08:52:38.287Z,87.27
2019-01-17T08:53:38.229Z,87.68
2019-01-17T08:54:38.208Z,87.27
2019-01-17T08:55:38.215Z,86.85
2019-01-17T08:56:38.271Z,87.12
2019-01-17T08:57:38.272Z,87.23
2019-01-17T08:58:38.174Z,85.84
2019-01-17T08:59:38.168Z,86.05
2019-01-17T09:00:38.163Z,85.74
2019-01-17T09:01:38.145Z,86.01
2019-01-17T09:02:38.152Z,85.28
2019-01-17T09:03:38.148Z,84.77
2019-01-17T09:04:38.118Z,85.60
2019-01-17T09:05:38.109Z,85.91
2019-01-17T09:06:38.103Z,86.21
2019-01-17T09:07:38.079Z,86.25
2019-01-17T09:08:38.065Z,86.46
2019-01-17T09:09:38.089Z,85.42
2019-01-17T09:10:38.081Z,85.94
2019-01-17T09:11:38.065Z,85.42
2019-01-17T09:12:38.039Z,85.22
2019-01-17T09:13:38.132Z,86.05
2019-01-17T09:14:38.044Z,86.88
2019-01-17T09:15:38.039Z,86.15
2019-01-17T09:16:37.985Z,86.25
2019-01-17T09:17:38.003Z,86.57
2019-01-17T09:18:37.990Z,86.67
2019-01-17T09:19:37.971Z,85.74
2019-01-17T09:20:37.952Z,86.25
2019-01-17T09:21:37.936Z,86.67
2019-01-17T09:22:37.929Z,87.18
2019-01-17T09:23:37.990Z,88.43
2019-01-17T09:24:37.954Z,87.70
2019-01-17T09:25:37.931Z,87.29
2019-01-17T09:26:37.947Z,86.88
2019-01-17T09:27:37.868Z,86.67
2019-01-17T09:28:37.930Z,85.53
2019-01-17T09:29:37.878Z,84.91
2019-01-17T09:30:37.851Z,85.32
2019-01-17T09:31:37.817Z,85.32
2019-01-17T09:32:37.838Z,85.74
2019-01-17T09:33:37.870Z,85.11
2019-01-17T09:34:37.796Z,85.32
2019-01-17T09:35:37.769Z,86.01
2019-01-17T09:36:37.776Z,86.32
2019-01-17T09:37:37.776Z,86.46
2019-01-17T09:38:37.730Z,86.21
2019-01-17T09:39:37.738Z,86.21
2019-01-17T09:40:37.714Z,84.97
2019-01-17T09:41:37.724Z,84.45
2019-01-17T09:42:37.742Z,84.56
2019-01-17T09:43:37.730Z,84.97
2019-01-17T09:44:37.679Z,84.31
2019-01-17T09:45:37.670Z,84.83
2019-01-17T09:46:37.652Z,84.11
2019-01-17T09:47:37.636Z,83.59
2019-01-17T09:48:37.669Z,83.90
2019-01-17T09:49:37.642Z,84.31
2019-01-17T09:50:37.616Z,84.07
2019-01-17T09:51:37.651Z,83.45
2019-01-17T09:52:37.696Z,81.90
2019-01-17T09:53:37.610Z,83.55
2019-01-17T09:54:37.580Z,82.62
2019-01-17T09:55:37.550Z,82.42
2019-01-17T09:56:37.572Z,81.80
2019-01-17T09:57:37.544Z,82.28
2019-01-17T09:58:37.521Z,82.07
2019-01-17T09:59:37.607Z,82.07
2019-01-17T10:00:37.518Z,82.28
2019-01-17T10:01:37.512Z,82.59
2019-01-17T10:02:37.522Z,82.28
2019-01-17T10:03:37.497Z,82.86
2019-01-17T10:04:37.458Z,81.82
2019-01-17T10:05:37.449Z,80.90
2019-01-17T10:06:38.272Z,80.58
2019-01-17T10:07:37.455Z,79.52
2019-01-17T10:08:37.423Z,81.00
2019-01-17T10:09:37.408Z,80.86
2019-01-17T10:10:37.400Z,80.90
2019-01-17T10:11:37.406Z,79.72
2019-01-17T10:12:37.403Z,78.90
2019-01-17T10:13:37.374Z,79.41
2019-01-17T10:14:37.375Z,80.86
2019-01-17T10:15:37.330Z,80.44
2019-01-17T10:16:37.332Z,80.93
2019-01-17T10:17:37.345Z,79.07
2019-01-17T10:18:37.333Z,79.69
2019-01-17T10:19:37.288Z,78.76
2019-01-17T10:20:37.288Z,79.79
2019-01-17T10:21:37.269Z,78.83
2019-01-17T10:22:37.258Z,78.31
2019-01-17T10:23:37.355Z,78.76
2019-01-17T10:24:37.265Z,78.72
2019-01-17T10:25:37.253Z,78.62
2019-01-17T10:26:37.220Z,78.11
2019-01-17T10:27:37.210Z,79.03
2019-01-17T10:28:37.194Z,78.62
2019-01-17T10:29:37.311Z,78.72
2019-01-17T10:30:37.176Z,78.41
2019-01-17T10:31:37.184Z,78.52
2019-01-17T10:32:37.176Z,78.41
2019-01-17T10:33:37.140Z,78.21
2019-01-17T10:34:37.153Z,77.80
2019-01-17T10:35:37.162Z,78.31
2019-01-17T10:36:37.108Z,79.20
2019-01-17T10:37:37.167Z,78.93
2019-01-17T10:38:37.114Z,77.18
2019-01-17T10:39:37.083Z,78.41
2019-01-17T10:40:37.082Z,76.97
2019-01-17T10:41:37.066Z,76.73
2019-01-17T10:42:37.057Z,76.76
2019-01-17T10:43:37.093Z,77.38
2019-01-17T10:44:37.028Z,79.24
2019-01-17T10:45:37.078Z,76.76
2019-01-17T10:46:37.126Z,78.41
2019-01-17T10:47:36.985Z,78.21
2019-01-17T10:48:36.989Z,78.45
2019-01-17T10:49:36.988Z,77.59
2019-01-17T10:50:36.991Z,76.90
2019-01-17T10:51:37.056Z,78.24
2019-01-17T10:52:36.984Z,78.45
2019-01-17T10:53:36.944Z,78.55
2019-01-17T10:54:36.921Z,79.17
2019-01-17T10:55:36.916Z,78.24
2019-01-17T10:56:41.345Z,78.45
2019-01-17T10:57:36.886Z,78.34
2019-01-17T10:58:36.905Z,79.24
2019-01-17T10:59:36.916Z,78.62
2019-01-17T11:00:36.872Z,76.97
2019-01-17T11:01:36.951Z,77.59
2019-01-17T11:02:36.931Z,77.48
2019-01-17T11:03:36.858Z,76.76
2019-01-17T11:04:36.863Z,76.76
2019-01-17T11:05:36.801Z,77.80
2019-01-17T11:06:36.801Z,78.52
2019-01-17T11:07:36.853Z,76.87
2019-01-17T11:08:36.824Z,77.28
2019-01-17T11:09:36.768Z,77.90
2019-01-17T11:10:36.766Z,76.35
2019-01-17T11:11:36.775Z,76.97
2019-01-17T11:12:36.753Z,76.63
2019-01-17T11:13:37.971Z,76.97
2019-01-17T11:14:36.716Z,78.00
2019-01-17T11:15:36.696Z,76.73
2019-01-17T11:16:36.681Z,76.56
2019-01-17T11:17:36.727Z,75.73
2019-01-17T11:18:36.661Z,75.49
2019-01-17T11:19:36.659Z,74.98
2019-01-17T11:20:36.634Z,74.88
2019-01-17T11:21:36.624Z,74.88
2019-01-17T11:22:36.685Z,75.08
2019-01-17T11:23:36.622Z,75.29
2019-01-17T11:24:36.626Z,74.88
2019-01-17T11:25:36.595Z,74.57
2019-01-17T11:26:36.570Z,75.08
2019-01-17T11:27:36.584Z,74.57
2019-01-17T11:28:36.563Z,75.05
2019-01-17T11:29:36.558Z,74.02
2019-01-17T11:30:36.603Z,74.84
2019-01-17T11:31:36.535Z,74.12
2019-01-17T11:32:36.534Z,74.95
2019-01-17T11:33:36.576Z,74.43
2019-01-17T11:34:36.515Z,74.05
2019-01-17T11:35:36.489Z,74.46
2019-01-17T11:36:36.510Z,74.67
2019-01-17T11:37:36.458Z,74.88
2019-01-17T11:38:36.454Z,74.88
2019-01-17T11:39:36.447Z,75.18
2019-01-17T11:40:36.507Z,75.18
2019-01-17T11:41:36.409Z,76.53
2019-01-17T11:42:36.395Z,75.90
2019-01-17T11:43:36.401Z,76.32
2019-01-17T11:44:36.395Z,76.83
2019-01-17T11:45:36.377Z,76.42
2019-01-17T11:46:36.518Z,76.32
2019-01-17T11:47:36.349Z,76.53
2019-01-17T11:48:36.346Z,76.11
2019-01-17T11:49:36.339Z,76.93
2019-01-17T11:50:36.309Z,76.73
2019-01-17T11:51:36.317Z,77.14
2019-01-17T11:52:36.330Z,75.90
2019-01-17T11:53:36.359Z,75.39
2019-01-17T11:54:36.272Z,76.42
2019-01-17T11:55:36.310Z,75.81
2019-01-17T11:56:40.959Z,77.28
2019-01-17T11:57:36.268Z,77.38
2019-01-17T11:58:36.233Z,78.21
2019-01-17T11:59:36.205Z,78.52
2019-01-17T12:00:36.237Z,77.48
2019-01-17T12:01:36.225Z,77.48
2019-01-17T12:02:39.314Z,78.62
2019-01-17T12:03:36.182Z,78.41
2019-01-17T12:04:36.183Z,78.52
2019-01-17T12:05:36.147Z,78.52
2019-01-17T12:06:36.255Z,78.31
2019-01-17T12:07:36.220Z,78.00
2019-01-17T12:08:36.111Z,79.00
2019-01-17T12:09:36.122Z,78.17
2019-01-17T12:10:36.108Z,78.69
2019-01-17T12:11:36.138Z,78.07
2019-01-17T12:12:36.082Z,78.38
2019-01-17T12:13:36.085Z,78.07
2019-01-17T12:14:36.049Z,77.35
2019-01-17T12:15:36.123Z,78.07
2019-01-17T12:16:36.080Z,77.97
2019-01-17T12:17:36.042Z,78.28
2019-01-17T12:18:36.019Z,77.76
2019-01-17T12:19:36.030Z,76.35
2019-01-17T12:20:35.986Z,76.25
2019-01-17T12:21:35.977Z,76.66
2019-01-17T12:22:36.034Z,75.84
2019-01-17T12:23:36.001Z,77.18
2019-01-17T12:24:35.950Z,76.39
2019-01-17T12:25:35.941Z,76.39
2019-01-17T12:26:35.932Z,76.90
2019-01-17T12:27:42.331Z,76.70
2019-01-17T12:28:36.914Z,76.70
2019-01-17T12:29:35.993Z,76.90
2019-01-17T12:30:35.895Z,76.80
2019-01-17T12:31:35.870Z,77.01
2019-01-17T12:32:35.893Z,78.55
2019-01-17T12:33:35.854Z,76.53
2019-01-17T12:34:35.848Z,76.49
2019-01-17T12:35:35.923Z,77.56
2019-01-17T12:36:35.844Z,78.04
2019-01-17T12:37:35.819Z,77.66
2019-01-17T12:38:35.824Z,78.59
2019-01-17T12:39:35.863Z,77.56
2019-01-17T12:40:35.882Z,78.28
2019-01-17T12:41:35.759Z,78.28
2019-01-17T12:42:35.799Z,78.83
2019-01-17T12:43:35.728Z,79.11
2019-01-17T12:44:35.721Z,79.66
2019-01-17T12:45:35.732Z,81.41
2019-01-17T12:46:35.723Z,81.56
2019-01-17T12:47:35.722Z,81.86
2019-01-17T12:48:35.692Z,81.90
2019-01-17T12:49:35.695Z,84.28
2019-01-17T12:50:35.661Z,84.94
2019-01-17T12:51:35.661Z,84.83
2019-01-17T12:52:35.670Z,86.11